sensor_id;sensor_type;location;lat;lon;timestamp;temperature;humidity
5286;DHT22;2665;53.112;7.358;2023-04-24T00:02:08;10.70;1.00
5286;DHT22;2665;53.112;7.358;2023-04-24T00:04:36;10.70;99.90
5286;DHT22;2665;53.112;7.358;2023-04-24T00:07:06;10.60;99.90
5286;DHT22;2665;53.112;7.358;2023-04-24T00:09:32;10.60;1.00
5286;DHT22;2665;53.112;7.358;2023-04-24T00:11:58;10.70;1.00
5286;DHT22;2665;53.112;7.358;2023-04-24T00:14:24;10.70;99.90
5286;DHT22;2665;53.112;7.358;2023-04-24T00:19:15;10.60;1.00
5286;DHT22;2665;53.112;7.358;2023-04-24T00:21:41;10.60;28.50
5286;DHT22;2665;53.112;7.358;2023-04-24T00:24:07;10.60;99.90
5286;DHT22;2665;53.112;7.358;2023-04-24T00:26:36;10.50;1.00
5286;DHT22;2665;53.112;7.358;2023-04-24T00:29:02;10.40;99.90
5286;DHT22;2665;53.112;7.358;2023-04-24T00:31:27;10.40;1.00
5286;DHT22;2665;53.112;7.358;2023-04-24T00:33:53;10.30;1.00
5286;DHT22;2665;53.112;7.358;2023-04-24T00:36:18;10.20;1.00
5286;DHT22;2665;53.112;7.358;2023-04-24T00:38:46;10.10;99.90
5286;DHT22;2665;53.112;7.358;2023-04-24T00:41:11;10.10;1.00
5286;DHT22;2665;53.112;7.358;2023-04-24T00:43:37;10.00;25.10
5286;DHT22;2665;53.112;7.358;2023-04-24T00:46:03;10.00;99.90
5286;DHT22;2665;53.112;7.358;2023-04-24T00:48:29;9.90;99.90
5286;DHT22;2665;53.112;7.358;2023-04-24T00:50:56;9.90;99.90
5286;DHT22;2665;53.112;7.358;2023-04-24T00:53:22;9.80;99.90
5286;DHT22;2665;53.112;7.358;2023-04-24T00:55:48;9.80;99.90
5286;DHT22;2665;53.112;7.358;2023-04-24T00:58:14;9.80;99.90
5286;DHT22;2665;53.112;7.358;2023-04-24T01:00:40;9.70;1.00
5286;DHT22;2665;53.112;7.358;2023-04-24T01:03:06;9.70;1.00
5286;DHT22;2665;53.112;7.358;2023-04-24T01:05:32;9.70;1.00
5286;DHT22;2665;53.112;7.358;2023-04-24T01:07:59;9.70;1.00
5286;DHT22;2665;53.112;7.358;2023-04-24T01:10:25;9.70;1.00
5286;DHT22;2665;53.112;7.358;2023-04-24T01:12:53;9.60;1.00
5286;DHT22;2665;53.112;7.358;2023-04-24T01:15:18;9.60;1.00
5286;DHT22;2665;53.112;7.358;2023-04-24T01:17:44;9.60;1.00
5286;DHT22;2665;53.112;7.358;2023-04-24T01:20:10;9.50;1.00
5286;DHT22;2665;53.112;7.358;2023-04-24T01:22:36;9.60;1.00
5286;DHT22;2665;53.112;7.358;2023-04-24T01:25:02;9.50;1.00
5286;DHT22;2665;53.112;7.358;2023-04-24T01:27:28;9.50;1.00
5286;DHT22;2665;53.112;7.358;2023-04-24T01:29:54;9.40;1.00
5286;DHT22;2665;53.112;7.358;2023-04-24T01:32:20;9.50;1.00
5286;DHT22;2665;53.112;7.358;2023-04-24T01:34:46;9.50;1.00
5286;DHT22;2665;53.112;7.358;2023-04-24T01:37:12;9.50;1.00
5286;DHT22;2665;53.112;7.358;2023-04-24T01:39:38;9.40;1.00
5286;DHT22;2665;53.112;7.358;2023-04-24T01:42:04;9.40;1.00
5286;DHT22;2665;53.112;7.358;2023-04-24T01:44:30;9.30;1.00
5286;DHT22;2665;53.112;7.358;2023-04-24T01:46:56;9.30;1.00
5286;DHT22;2665;53.112;7.358;2023-04-24T01:49:22;9.20;1.00
5286;DHT22;2665;53.112;7.358;2023-04-24T01:51:48;9.20;1.00
5286;DHT22;2665;53.112;7.358;2023-04-24T01:54:13;9.20;1.00
5286;DHT22;2665;53.112;7.358;2023-04-24T01:56:43;9.20;1.00
5286;DHT22;2665;53.112;7.358;2023-04-24T01:59:12;9.10;1.00
5286;DHT22;2665;53.112;7.358;2023-04-24T02:01:38;9.10;1.00
5286;DHT22;2665;53.112;7.358;2023-04-24T02:04:05;9.10;1.00
5286;DHT22;2665;53.112;7.358;2023-04-24T02:06:31;9.10;1.00
5286;DHT22;2665;53.112;7.358;2023-04-24T02:08:58;9.10;1.00
5286;DHT22;2665;53.112;7.358;2023-04-24T02:11:24;9.10;1.00
5286;DHT22;2665;53.112;7.358;2023-04-24T02:13:50;9.20;1.00
5286;DHT22;2665;53.112;7.358;2023-04-24T02:16:17;9.10;1.00
5286;DHT22;2665;53.112;7.358;2023-04-24T02:18:42;9.10;1.00
5286;DHT22;2665;53.112;7.358;2023-04-24T02:21:08;9.00;1.00
5286;DHT22;2665;53.112;7.358;2023-04-24T02:23:34;9.10;1.00
5286;DHT22;2665;53.112;7.358;2023-04-24T02:26:00;9.10;1.00
5286;DHT22;2665;53.112;7.358;2023-04-24T02:28:25;9.10;1.00
5286;DHT22;2665;53.112;7.358;2023-04-24T02:30:51;9.20;1.00
5286;DHT22;2665;53.112;7.358;2023-04-24T02:33:16;9.30;1.00
5286;DHT22;2665;53.112;7.358;2023-04-24T02:35:42;9.30;1.00
5286;DHT22;2665;53.112;7.358;2023-04-24T02:38:07;9.30;1.00
5286;DHT22;2665;53.112;7.358;2023-04-24T02:40:33;9.30;1.00
5286;DHT22;2665;53.112;7.358;2023-04-24T02:42:59;9.40;1.00
5286;DHT22;2665;53.112;7.358;2023-04-24T02:45:24;9.40;1.00
5286;DHT22;2665;53.112;7.358;2023-04-24T02:47:50;9.40;1.00
5286;DHT22;2665;53.112;7.358;2023-04-24T02:50:15;9.40;1.00
5286;DHT22;2665;53.112;7.358;2023-04-24T02:52:41;9.40;1.00
5286;DHT22;2665;53.112;7.358;2023-04-24T02:55:07;9.40;1.00
5286;DHT22;2665;53.112;7.358;2023-04-24T02:57:33;9.40;1.00
5286;DHT22;2665;53.112;7.358;2023-04-24T02:59:59;9.30;1.00
5286;DHT22;2665;53.112;7.358;2023-04-24T03:02:25;9.30;1.00
5286;DHT22;2665;53.112;7.358;2023-04-24T03:04:50;9.20;1.00
5286;DHT22;2665;53.112;7.358;2023-04-24T03:07:16;9.30;1.00
5286;DHT22;2665;53.112;7.358;2023-04-24T03:09:42;9.30;1.00
5286;DHT22;2665;53.112;7.358;2023-04-24T03:12:07;9.30;1.00
5286;DHT22;2665;53.112;7.358;2023-04-24T03:14:33;9.40;1.00
5286;DHT22;2665;53.112;7.358;2023-04-24T03:16:58;9.40;1.00
5286;DHT22;2665;53.112;7.358;2023-04-24T03:19:24;9.40;1.00
5286;DHT22;2665;53.112;7.358;2023-04-24T03:21:50;9.40;99.90
5286;DHT22;2665;53.112;7.358;2023-04-24T03:24:15;9.40;99.90
5286;DHT22;2665;53.112;7.358;2023-04-24T03:26:41;9.50;99.90
5286;DHT22;2665;53.112;7.358;2023-04-24T03:29:07;9.50;99.90
5286;DHT22;2665;53.112;7.358;2023-04-24T03:31:32;9.50;99.90
5286;DHT22;2665;53.112;7.358;2023-04-24T03:33:58;9.50;99.90
5286;DHT22;2665;53.112;7.358;2023-04-24T03:36:24;9.50;99.90
5286;DHT22;2665;53.112;7.358;2023-04-24T03:38:49;9.50;94.00
5286;DHT22;2665;53.112;7.358;2023-04-24T03:41:15;9.40;1.00
5286;DHT22;2665;53.112;7.358;2023-04-24T03:43:40;9.40;1.00
5286;DHT22;2665;53.112;7.358;2023-04-24T03:46:06;9.40;1.00
5286;DHT22;2665;53.112;7.358;2023-04-24T03:48:34;9.40;1.00
5286;DHT22;2665;53.112;7.358;2023-04-24T03:51:00;9.40;1.00
5286;DHT22;2665;53.112;7.358;2023-04-24T03:53:26;9.40;1.00
5286;DHT22;2665;53.112;7.358;2023-04-24T03:55:52;9.40;1.00
5286;DHT22;2665;53.112;7.358;2023-04-24T03:58:18;9.40;1.00
5286;DHT22;2665;53.112;7.358;2023-04-24T04:00:44;9.40;1.00
5286;DHT22;2665;53.112;7.358;2023-04-24T04:03:12;9.40;99.90
5286;DHT22;2665;53.112;7.358;2023-04-24T04:05:39;9.40;99.90
5286;DHT22;2665;53.112;7.358;2023-04-24T04:08:04;9.40;99.90
5286;DHT22;2665;53.112;7.358;2023-04-24T04:10:30;9.40;99.90
5286;DHT22;2665;53.112;7.358;2023-04-24T04:12:56;9.30;99.90
5286;DHT22;2665;53.112;7.358;2023-04-24T04:15:21;9.30;51.20
5286;DHT22;2665;53.112;7.358;2023-04-24T04:17:47;9.30;99.90
5286;DHT22;2665;53.112;7.358;2023-04-24T04:20:12;9.30;99.90
5286;DHT22;2665;53.112;7.358;2023-04-24T04:22:38;9.30;99.90
5286;DHT22;2665;53.112;7.358;2023-04-24T04:25:05;9.30;99.90
5286;DHT22;2665;53.112;7.358;2023-04-24T04:27:30;9.30;99.90
5286;DHT22;2665;53.112;7.358;2023-04-24T04:30:01;9.30;99.90
5286;DHT22;2665;53.112;7.358;2023-04-24T04:32:36;9.30;99.90
5286;DHT22;2665;53.112;7.358;2023-04-24T04:35:03;9.30;99.90
5286;DHT22;2665;53.112;7.358;2023-04-24T04:37:29;9.30;99.90
5286;DHT22;2665;53.112;7.358;2023-04-24T04:39:55;9.30;99.90
5286;DHT22;2665;53.112;7.358;2023-04-24T04:42:21;9.30;99.90
5286;DHT22;2665;53.112;7.358;2023-04-24T04:44:47;9.30;99.90
5286;DHT22;2665;53.112;7.358;2023-04-24T04:47:12;9.30;99.90
5286;DHT22;2665;53.112;7.358;2023-04-24T04:49:38;9.30;99.90
5286;DHT22;2665;53.112;7.358;2023-04-24T04:52:04;9.30;99.90
5286;DHT22;2665;53.112;7.358;2023-04-24T04:54:32;9.30;1.00
5286;DHT22;2665;53.112;7.358;2023-04-24T04:56:58;9.30;1.00
5286;DHT22;2665;53.112;7.358;2023-04-24T04:59:24;9.40;1.00
5286;DHT22;2665;53.112;7.358;2023-04-24T05:01:50;9.40;1.00
5286;DHT22;2665;53.112;7.358;2023-04-24T05:04:15;9.40;1.00
5286;DHT22;2665;53.112;7.358;2023-04-24T05:06:41;9.40;1.00
5286;DHT22;2665;53.112;7.358;2023-04-24T05:09:06;9.40;1.00
5286;DHT22;2665;53.112;7.358;2023-04-24T05:11:32;9.40;1.00
5286;DHT22;2665;53.112;7.358;2023-04-24T05:13:58;9.40;1.00
5286;DHT22;2665;53.112;7.358;2023-04-24T05:16:24;9.40;1.00
5286;DHT22;2665;53.112;7.358;2023-04-24T05:18:49;9.40;1.00
5286;DHT22;2665;53.112;7.358;2023-04-24T05:21:15;9.30;1.00
5286;DHT22;2665;53.112;7.358;2023-04-24T05:23:41;9.30;1.00
5286;DHT22;2665;53.112;7.358;2023-04-24T05:26:06;9.40;1.00
5286;DHT22;2665;53.112;7.358;2023-04-24T05:28:32;9.40;1.00
5286;DHT22;2665;53.112;7.358;2023-04-24T05:30:57;9.40;1.00
5286;DHT22;2665;53.112;7.358;2023-04-24T05:33:24;9.40;1.00
5286;DHT22;2665;53.112;7.358;2023-04-24T05:35:50;9.40;1.00
5286;DHT22;2665;53.112;7.358;2023-04-24T05:38:16;9.40;1.00
5286;DHT22;2665;53.112;7.358;2023-04-24T05:40:47;9.50;1.00
5286;DHT22;2665;53.112;7.358;2023-04-24T05:43:13;9.50;1.00
5286;DHT22;2665;53.112;7.358;2023-04-24T05:45:39;9.50;1.00
5286;DHT22;2665;53.112;7.358;2023-04-24T05:48:04;9.50;99.90
5286;DHT22;2665;53.112;7.358;2023-04-24T05:50:31;9.50;99.90
5286;DHT22;2665;53.112;7.358;2023-04-24T05:52:57;9.50;99.90
5286;DHT22;2665;53.112;7.358;2023-04-24T05:55:27;9.50;46.40
5286;DHT22;2665;53.112;7.358;2023-04-24T05:57:53;9.50;99.90
5286;DHT22;2665;53.112;7.358;2023-04-24T06:00:19;9.60;1.00
5286;DHT22;2665;53.112;7.358;2023-04-24T06:02:46;9.60;99.90
5286;DHT22;2665;53.112;7.358;2023-04-24T06:05:11;9.60;99.90
5286;DHT22;2665;53.112;7.358;2023-04-24T06:07:37;9.60;1.00
5286;DHT22;2665;53.112;7.358;2023-04-24T06:10:03;9.50;1.00
5286;DHT22;2665;53.112;7.358;2023-04-24T06:12:28;9.50;99.90
5286;DHT22;2665;53.112;7.358;2023-04-24T06:14:54;9.40;1.00
5286;DHT22;2665;53.112;7.358;2023-04-24T06:17:21;9.40;99.90
5286;DHT22;2665;53.112;7.358;2023-04-24T06:19:46;9.50;1.00
5286;DHT22;2665;53.112;7.358;2023-04-24T06:22:12;9.60;1.00
5286;DHT22;2665;53.112;7.358;2023-04-24T06:24:39;9.70;1.00
5286;DHT22;2665;53.112;7.358;2023-04-24T06:27:05;9.70;1.00
5286;DHT22;2665;53.112;7.358;2023-04-24T06:29:31;9.80;43.10
5286;DHT22;2665;53.112;7.358;2023-04-24T06:31:56;9.90;1.00
5286;DHT22;2665;53.112;7.358;2023-04-24T06:34:22;9.90;99.90
5286;DHT22;2665;53.112;7.358;2023-04-24T06:36:47;10.00;34.00
5286;DHT22;2665;53.112;7.358;2023-04-24T06:39:13;10.00;1.00
5286;DHT22;2665;53.112;7.358;2023-04-24T06:41:39;10.10;99.90
5286;DHT22;2665;53.112;7.358;2023-04-24T06:44:05;10.20;99.90
5286;DHT22;2665;53.112;7.358;2023-04-24T06:46:31;10.20;37.10
5286;DHT22;2665;53.112;7.358;2023-04-24T06:48:56;10.20;99.90
5286;DHT22;2665;53.112;7.358;2023-04-24T06:51:26;10.20;99.90
5286;DHT22;2665;53.112;7.358;2023-04-24T06:53:53;10.20;99.90
5286;DHT22;2665;53.112;7.358;2023-04-24T06:56:19;10.30;99.90
5286;DHT22;2665;53.112;7.358;2023-04-24T06:58:44;10.20;1.00
5286;DHT22;2665;53.112;7.358;2023-04-24T07:01:10;10.20;1.00
5286;DHT22;2665;53.112;7.358;2023-04-24T07:03:36;10.10;77.30
5286;DHT22;2665;53.112;7.358;2023-04-24T07:06:02;10.10;1.00
5286;DHT22;2665;53.112;7.358;2023-04-24T07:08:29;10.10;99.90
5286;DHT22;2665;53.112;7.358;2023-04-24T07:10:56;10.00;1.00
5286;DHT22;2665;53.112;7.358;2023-04-24T07:13:22;9.90;62.80
5286;DHT22;2665;53.112;7.358;2023-04-24T07:15:48;9.80;99.90
5286;DHT22;2665;53.112;7.358;2023-04-24T07:18:16;9.70;1.00
5286;DHT22;2665;53.112;7.358;2023-04-24T07:20:42;9.70;1.00
5286;DHT22;2665;53.112;7.358;2023-04-24T07:23:08;9.70;1.00
5286;DHT22;2665;53.112;7.358;2023-04-24T07:25:33;9.60;99.90
5286;DHT22;2665;53.112;7.358;2023-04-24T07:27:59;9.60;1.00
5286;DHT22;2665;53.112;7.358;2023-04-24T07:30:25;9.60;1.00
5286;DHT22;2665;53.112;7.358;2023-04-24T07:32:51;9.60;1.00
5286;DHT22;2665;53.112;7.358;2023-04-24T07:35:17;9.60;1.00
5286;DHT22;2665;53.112;7.358;2023-04-24T07:37:42;9.50;1.00
5286;DHT22;2665;53.112;7.358;2023-04-24T07:40:14;9.40;56.90
5286;DHT22;2665;53.112;7.358;2023-04-24T07:42:40;9.40;99.90
5286;DHT22;2665;53.112;7.358;2023-04-24T07:45:07;9.40;99.90
5286;DHT22;2665;53.112;7.358;2023-04-24T07:47:33;9.50;99.90
5286;DHT22;2665;53.112;7.358;2023-04-24T07:49:59;9.50;99.90
5286;DHT22;2665;53.112;7.358;2023-04-24T07:52:24;9.50;99.90
5286;DHT22;2665;53.112;7.358;2023-04-24T07:54:50;9.60;99.90
5286;DHT22;2665;53.112;7.358;2023-04-24T07:57:19;9.60;99.90
5286;DHT22;2665;53.112;7.358;2023-04-24T07:59:45;9.60;99.90
5286;DHT22;2665;53.112;7.358;2023-04-24T08:02:10;9.60;99.90
5286;DHT22;2665;53.112;7.358;2023-04-24T08:04:36;9.50;99.90
5286;DHT22;2665;53.112;7.358;2023-04-24T08:07:01;9.50;99.90
5286;DHT22;2665;53.112;7.358;2023-04-24T08:09:27;9.50;99.90
5286;DHT22;2665;53.112;7.358;2023-04-24T08:11:52;9.50;99.90
5286;DHT22;2665;53.112;7.358;2023-04-24T08:14:18;9.50;99.90
5286;DHT22;2665;53.112;7.358;2023-04-24T08:16:46;9.40;99.90
5286;DHT22;2665;53.112;7.358;2023-04-24T08:19:12;9.40;1.00
5286;DHT22;2665;53.112;7.358;2023-04-24T08:21:37;9.40;1.00
5286;DHT22;2665;53.112;7.358;2023-04-24T08:24:03;9.40;1.00
5286;DHT22;2665;53.112;7.358;2023-04-24T08:26:32;9.30;1.00
5286;DHT22;2665;53.112;7.358;2023-04-24T08:28:58;9.30;1.00
5286;DHT22;2665;53.112;7.358;2023-04-24T08:31:24;9.30;1.00
5286;DHT22;2665;53.112;7.358;2023-04-24T08:33:51;9.30;1.00
5286;DHT22;2665;53.112;7.358;2023-04-24T08:36:16;9.30;1.00
5286;DHT22;2665;53.112;7.358;2023-04-24T08:38:42;9.20;1.00
5286;DHT22;2665;53.112;7.358;2023-04-24T08:41:08;9.20;1.00
5286;DHT22;2665;53.112;7.358;2023-04-24T08:43:35;9.30;1.00
5286;DHT22;2665;53.112;7.358;2023-04-24T08:46:03;9.30;1.00
5286;DHT22;2665;53.112;7.358;2023-04-24T08:48:29;9.40;1.00
5286;DHT22;2665;53.112;7.358;2023-04-24T08:50:56;9.40;1.00
5286;DHT22;2665;53.112;7.358;2023-04-24T08:53:24;9.40;1.00
5286;DHT22;2665;53.112;7.358;2023-04-24T08:55:50;9.40;1.00
5286;DHT22;2665;53.112;7.358;2023-04-24T08:58:17;9.40;1.00
5286;DHT22;2665;53.112;7.358;2023-04-24T09:00:45;9.40;1.00
5286;DHT22;2665;53.112;7.358;2023-04-24T09:03:16;9.40;1.00
5286;DHT22;2665;53.112;7.358;2023-04-24T09:05:47;9.40;1.00
5286;DHT22;2665;53.112;7.358;2023-04-24T09:08:13;9.50;1.00
5286;DHT22;2665;53.112;7.358;2023-04-24T09:10:40;9.50;1.00
5286;DHT22;2665;53.112;7.358;2023-04-24T09:13:06;9.50;1.00
5286;DHT22;2665;53.112;7.358;2023-04-24T09:15:34;9.60;1.00
5286;DHT22;2665;53.112;7.358;2023-04-24T09:18:00;9.60;1.00
5286;DHT22;2665;53.112;7.358;2023-04-24T09:20:26;9.70;1.00
5286;DHT22;2665;53.112;7.358;2023-04-24T09:22:54;9.70;1.00
5286;DHT22;2665;53.112;7.358;2023-04-24T09:25:21;9.80;1.00
5286;DHT22;2665;53.112;7.358;2023-04-24T09:27:46;9.90;1.00
5286;DHT22;2665;53.112;7.358;2023-04-24T09:30:13;9.90;1.00
5286;DHT22;2665;53.112;7.358;2023-04-24T09:32:40;9.90;1.00
5286;DHT22;2665;53.112;7.358;2023-04-24T09:37:45;9.80;1.00
5286;DHT22;2665;53.112;7.358;2023-04-24T09:40:13;9.90;1.00
5286;DHT22;2665;53.112;7.358;2023-04-24T09:42:39;10.00;1.00
5286;DHT22;2665;53.112;7.358;2023-04-24T09:45:09;10.10;1.00
5286;DHT22;2665;53.112;7.358;2023-04-24T09:47:38;10.00;1.00
5286;DHT22;2665;53.112;7.358;2023-04-24T09:50:11;10.00;1.00
5286;DHT22;2665;53.112;7.358;2023-04-24T09:52:58;9.90;1.00
5286;DHT22;2665;53.112;7.358;2023-04-24T09:55:24;9.80;1.00
5286;DHT22;2665;53.112;7.358;2023-04-24T09:58:00;9.70;1.00
5286;DHT22;2665;53.112;7.358;2023-04-24T10:00:28;9.70;1.00
5286;DHT22;2665;53.112;7.358;2023-04-24T10:03:02;9.80;1.00
5286;DHT22;2665;53.112;7.358;2023-04-24T10:05:36;9.70;1.00
5286;DHT22;2665;53.112;7.358;2023-04-24T10:10:29;9.50;1.00
5286;DHT22;2665;53.112;7.358;2023-04-24T10:12:55;9.50;1.00
5286;DHT22;2665;53.112;7.358;2023-04-24T10:15:21;9.50;1.00
5286;DHT22;2665;53.112;7.358;2023-04-24T10:17:51;9.40;1.00
5286;DHT22;2665;53.112;7.358;2023-04-24T10:20:24;9.40;1.00
5286;DHT22;2665;53.112;7.358;2023-04-24T10:22:52;9.20;1.00
5286;DHT22;2665;53.112;7.358;2023-04-24T10:25:23;9.10;1.00
5286;DHT22;2665;53.112;7.358;2023-04-24T10:27:51;9.10;1.00
5286;DHT22;2665;53.112;7.358;2023-04-24T10:30:20;9.00;1.00
5286;DHT22;2665;53.112;7.358;2023-04-24T10:32:46;9.00;1.00
5286;DHT22;2665;53.112;7.358;2023-04-24T10:35:13;9.00;1.00
5286;DHT22;2665;53.112;7.358;2023-04-24T10:37:45;9.10;1.00
5286;DHT22;2665;53.112;7.358;2023-04-24T10:40:16;9.10;1.00
5286;DHT22;2665;53.112;7.358;2023-04-24T10:42:42;9.00;1.00
5286;DHT22;2665;53.112;7.358;2023-04-24T10:45:22;8.90;1.00
5286;DHT22;2665;53.112;7.358;2023-04-24T10:48:11;8.80;1.00
5286;DHT22;2665;53.112;7.358;2023-04-24T10:50:44;8.70;1.00
5286;DHT22;2665;53.112;7.358;2023-04-24T10:53:18;8.70;1.00
5286;DHT22;2665;53.112;7.358;2023-04-24T10:55:51;8.60;1.00
5286;DHT22;2665;53.112;7.358;2023-04-24T10:58:22;8.60;1.00
5286;DHT22;2665;53.112;7.358;2023-04-24T11:00:59;8.60;1.00
5286;DHT22;2665;53.112;7.358;2023-04-24T11:03:30;8.70;1.00
5286;DHT22;2665;53.112;7.358;2023-04-24T11:05:57;8.60;1.00
5286;DHT22;2665;53.112;7.358;2023-04-24T11:11:13;8.60;1.00
5286;DHT22;2665;53.112;7.358;2023-04-24T11:18:59;8.50;1.00
5286;DHT22;2665;53.112;7.358;2023-04-24T11:21:25;8.50;1.00
5286;DHT22;2665;53.112;7.358;2023-04-24T11:23:51;8.50;1.00
5286;DHT22;2665;53.112;7.358;2023-04-24T11:26:19;8.50;1.00
5286;DHT22;2665;53.112;7.358;2023-04-24T11:28:50;8.50;1.00
5286;DHT22;2665;53.112;7.358;2023-04-24T11:31:36;8.50;1.00
5286;DHT22;2665;53.112;7.358;2023-04-24T11:34:09;8.60;1.00
5286;DHT22;2665;53.112;7.358;2023-04-24T11:36:35;8.60;1.00
5286;DHT22;2665;53.112;7.358;2023-04-24T11:39:01;8.70;1.00
5286;DHT22;2665;53.112;7.358;2023-04-24T11:41:28;8.80;1.00
5286;DHT22;2665;53.112;7.358;2023-04-24T11:43:54;8.80;1.00
5286;DHT22;2665;53.112;7.358;2023-04-24T11:46:30;8.90;1.00
5286;DHT22;2665;53.112;7.358;2023-04-24T11:48:57;8.80;99.90
5286;DHT22;2665;53.112;7.358;2023-04-24T11:51:24;8.90;99.90
5286;DHT22;2665;53.112;7.358;2023-04-24T11:53:51;8.80;99.90
5286;DHT22;2665;53.112;7.358;2023-04-24T11:56:21;8.90;99.90
5286;DHT22;2665;53.112;7.358;2023-04-24T11:58:48;9.10;99.90
5286;DHT22;2665;53.112;7.358;2023-04-24T12:01:14;9.10;99.90
5286;DHT22;2665;53.112;7.358;2023-04-24T12:03:39;9.30;99.90
5286;DHT22;2665;53.112;7.358;2023-04-24T12:06:10;9.40;1.00
5286;DHT22;2665;53.112;7.358;2023-04-24T12:08:36;9.50;1.00
5286;DHT22;2665;53.112;7.358;2023-04-24T12:11:03;9.50;99.90
5286;DHT22;2665;53.112;7.358;2023-04-24T12:13:30;9.50;99.90
5286;DHT22;2665;53.112;7.358;2023-04-24T12:15:59;9.50;99.90
5286;DHT22;2665;53.112;7.358;2023-04-24T12:18:26;9.50;1.00
5286;DHT22;2665;53.112;7.358;2023-04-24T12:20:51;9.50;99.90
5286;DHT22;2665;53.112;7.358;2023-04-24T12:23:35;9.40;1.00
5286;DHT22;2665;53.112;7.358;2023-04-24T12:26:04;9.30;1.00
5286;DHT22;2665;53.112;7.358;2023-04-24T12:28:37;9.30;99.90
5286;DHT22;2665;53.112;7.358;2023-04-24T12:31:03;9.30;1.00
5286;DHT22;2665;53.112;7.358;2023-04-24T12:33:33;9.30;1.00
5286;DHT22;2665;53.112;7.358;2023-04-24T12:35:59;9.40;99.90
5286;DHT22;2665;53.112;7.358;2023-04-24T12:38:27;9.50;99.90
5286;DHT22;2665;53.112;7.358;2023-04-24T12:41:10;9.50;99.90
5286;DHT22;2665;53.112;7.358;2023-04-24T12:43:36;9.50;79.20
5286;DHT22;2665;53.112;7.358;2023-04-24T12:46:02;9.50;99.90
5286;DHT22;2665;53.112;7.358;2023-04-24T12:48:29;9.40;99.90
5286;DHT22;2665;53.112;7.358;2023-04-24T12:50:57;9.30;99.90
5286;DHT22;2665;53.112;7.358;2023-04-24T12:53:25;9.20;45.00
5286;DHT22;2665;53.112;7.358;2023-04-24T12:55:52;9.30;99.90
5286;DHT22;2665;53.112;7.358;2023-04-24T12:58:21;9.30;99.90
5286;DHT22;2665;53.112;7.358;2023-04-24T13:00:47;9.40;1.00
5286;DHT22;2665;53.112;7.358;2023-04-24T13:03:13;9.40;99.90
5286;DHT22;2665;53.112;7.358;2023-04-24T13:05:39;9.40;1.00
5286;DHT22;2665;53.112;7.358;2023-04-24T13:08:04;9.40;99.90
5286;DHT22;2665;53.112;7.358;2023-04-24T13:10:33;9.40;99.90
5286;DHT22;2665;53.112;7.358;2023-04-24T13:12:59;9.40;1.00
5286;DHT22;2665;53.112;7.358;2023-04-24T13:15:25;9.40;99.90
5286;DHT22;2665;53.112;7.358;2023-04-24T13:17:50;9.40;14.70
5286;DHT22;2665;53.112;7.358;2023-04-24T13:20:17;9.40;1.00
5286;DHT22;2665;53.112;7.358;2023-04-24T13:22:43;9.30;99.90
5286;DHT22;2665;53.112;7.358;2023-04-24T13:25:08;9.20;99.90
5286;DHT22;2665;53.112;7.358;2023-04-24T13:27:35;9.20;99.90
5286;DHT22;2665;53.112;7.358;2023-04-24T13:30:01;9.10;1.00
5286;DHT22;2665;53.112;7.358;2023-04-24T13:32:26;9.10;1.00
5286;DHT22;2665;53.112;7.358;2023-04-24T13:34:53;9.10;1.00
5286;DHT22;2665;53.112;7.358;2023-04-24T13:37:19;9.10;1.00
5286;DHT22;2665;53.112;7.358;2023-04-24T13:39:44;9.10;1.00
5286;DHT22;2665;53.112;7.358;2023-04-24T13:42:10;9.20;1.00
5286;DHT22;2665;53.112;7.358;2023-04-24T13:44:36;9.10;99.90
5286;DHT22;2665;53.112;7.358;2023-04-24T13:47:01;9.20;99.90
5286;DHT22;2665;53.112;7.358;2023-04-24T13:49:28;9.30;99.90
5286;DHT22;2665;53.112;7.358;2023-04-24T13:51:55;9.30;1.00
5286;DHT22;2665;53.112;7.358;2023-04-24T13:54:21;9.40;1.00
5286;DHT22;2665;53.112;7.358;2023-04-24T13:56:48;9.50;99.90
5286;DHT22;2665;53.112;7.358;2023-04-24T13:59:14;9.50;1.00
5286;DHT22;2665;53.112;7.358;2023-04-24T14:01:40;9.50;99.90
5286;DHT22;2665;53.112;7.358;2023-04-24T14:04:05;9.50;99.90
5286;DHT22;2665;53.112;7.358;2023-04-24T14:06:31;9.50;99.90
5286;DHT22;2665;53.112;7.358;2023-04-24T14:08:57;9.50;99.90
5286;DHT22;2665;53.112;7.358;2023-04-24T14:11:23;9.50;99.90
5286;DHT22;2665;53.112;7.358;2023-04-24T14:13:49;9.40;71.80
5286;DHT22;2665;53.112;7.358;2023-04-24T14:16:15;9.40;1.00
5286;DHT22;2665;53.112;7.358;2023-04-24T14:18:40;9.30;1.00
5286;DHT22;2665;53.112;7.358;2023-04-24T14:21:06;9.20;1.00
5286;DHT22;2665;53.112;7.358;2023-04-24T14:23:32;9.20;1.00
5286;DHT22;2665;53.112;7.358;2023-04-24T14:25:59;9.10;1.00
5286;DHT22;2665;53.112;7.358;2023-04-24T14:28:25;9.10;1.00
5286;DHT22;2665;53.112;7.358;2023-04-24T14:30:51;9.10;29.30
5286;DHT22;2665;53.112;7.358;2023-04-24T14:33:17;9.20;92.30
5286;DHT22;2665;53.112;7.358;2023-04-24T14:35:43;9.10;99.90
5286;DHT22;2665;53.112;7.358;2023-04-24T14:38:09;9.10;99.90
5286;DHT22;2665;53.112;7.358;2023-04-24T14:40:35;9.10;99.90
5286;DHT22;2665;53.112;7.358;2023-04-24T14:43:01;9.10;99.90
5286;DHT22;2665;53.112;7.358;2023-04-24T14:45:27;9.20;99.90
5286;DHT22;2665;53.112;7.358;2023-04-24T14:47:53;9.20;99.90
5286;DHT22;2665;53.112;7.358;2023-04-24T14:50:20;9.20;99.90
5286;DHT22;2665;53.112;7.358;2023-04-24T14:52:45;9.10;1.00
5286;DHT22;2665;53.112;7.358;2023-04-24T14:55:11;9.00;1.00
5286;DHT22;2665;53.112;7.358;2023-04-24T14:57:37;9.00;1.00
5286;DHT22;2665;53.112;7.358;2023-04-24T15:00:04;9.00;99.90
5286;DHT22;2665;53.112;7.358;2023-04-24T15:02:34;9.00;99.90
5286;DHT22;2665;53.112;7.358;2023-04-24T15:05:02;9.00;99.90
5286;DHT22;2665;53.112;7.358;2023-04-24T15:07:28;9.00;99.90
5286;DHT22;2665;53.112;7.358;2023-04-24T15:09:57;9.00;26.80
5286;DHT22;2665;53.112;7.358;2023-04-24T15:12:23;8.90;1.00
5286;DHT22;2665;53.112;7.358;2023-04-24T15:14:48;8.80;99.90
5286;DHT22;2665;53.112;7.358;2023-04-24T15:17:14;8.70;1.00
5286;DHT22;2665;53.112;7.358;2023-04-24T15:19:40;8.70;1.00
5286;DHT22;2665;53.112;7.358;2023-04-24T15:22:05;8.60;99.90
5286;DHT22;2665;53.112;7.358;2023-04-24T15:24:31;8.60;1.00
5286;DHT22;2665;53.112;7.358;2023-04-24T15:26:56;8.50;99.90
5286;DHT22;2665;53.112;7.358;2023-04-24T15:29:22;8.50;1.00
5286;DHT22;2665;53.112;7.358;2023-04-24T15:31:48;8.40;99.90
5286;DHT22;2665;53.112;7.358;2023-04-24T15:34:13;8.40;1.00
5286;DHT22;2665;53.112;7.358;2023-04-24T15:36:39;8.40;99.90
5286;DHT22;2665;53.112;7.358;2023-04-24T15:39:05;8.50;99.90
5286;DHT22;2665;53.112;7.358;2023-04-24T15:41:30;8.70;22.60
5286;DHT22;2665;53.112;7.358;2023-04-24T15:43:57;9.00;1.00
5286;DHT22;2665;53.112;7.358;2023-04-24T15:46:23;9.10;99.90
5286;DHT22;2665;53.112;7.358;2023-04-24T15:48:48;9.20;1.00
5286;DHT22;2665;53.112;7.358;2023-04-24T15:51:14;9.20;1.00
5286;DHT22;2665;53.112;7.358;2023-04-24T15:53:40;9.20;1.00
5286;DHT22;2665;53.112;7.358;2023-04-24T15:56:06;9.10;1.00
5286;DHT22;2665;53.112;7.358;2023-04-24T15:58:31;9.10;12.20
5286;DHT22;2665;53.112;7.358;2023-04-24T16:00:57;9.30;1.00
5286;DHT22;2665;53.112;7.358;2023-04-24T16:03:23;9.50;1.00
5286;DHT22;2665;53.112;7.358;2023-04-24T16:05:48;9.60;1.00
5286;DHT22;2665;53.112;7.358;2023-04-24T16:08:14;9.60;99.90
5286;DHT22;2665;53.112;7.358;2023-04-24T16:10:40;9.50;99.90
5286;DHT22;2665;53.112;7.358;2023-04-24T16:13:06;9.40;99.90
5286;DHT22;2665;53.112;7.358;2023-04-24T16:15:33;9.40;99.90
5286;DHT22;2665;53.112;7.358;2023-04-24T16:17:59;9.30;99.90
5286;DHT22;2665;53.112;7.358;2023-04-24T16:20:25;9.40;1.00
5286;DHT22;2665;53.112;7.358;2023-04-24T16:22:50;9.40;1.00
5286;DHT22;2665;53.112;7.358;2023-04-24T16:25:16;9.40;73.10
5286;DHT22;2665;53.112;7.358;2023-04-24T16:27:43;9.20;1.00
5286;DHT22;2665;53.112;7.358;2023-04-24T16:30:09;9.20;1.00
5286;DHT22;2665;53.112;7.358;2023-04-24T16:32:34;9.10;1.00
5286;DHT22;2665;53.112;7.358;2023-04-24T16:35:00;9.00;1.00
5286;DHT22;2665;53.112;7.358;2023-04-24T16:37:27;8.90;1.00
5286;DHT22;2665;53.112;7.358;2023-04-24T16:39:53;8.80;99.90